Time;durP1;ratioP1;P1;durP2;ratioP2;P2;SDS_P1;SDS_P2;PMS_P1;PMS_P2;Temp;Humidity;BMP_temperature;BMP_pressure;BME280_temperature;BME280_humidity;BME280_pressure;Samples;Min_cycle;Max_cycle;Signal;HPM_P1;HPM_P2
2022/03/26 00:02:06;;;;;;;;;;;6.80;99.90;;;;;;5017953;28;19932;-77
2022/03/26 00:04:32;;;;;;;;;;;6.70;99.90;;;;;;5018051;28;19925;-78
2022/03/26 00:06:57;;;;;;;;;;;6.70;99.90;;;;;;5017983;28;19927;-76
2022/03/26 00:09:23;;;;;;;;;;;6.70;99.90;;;;;;5002465;28;20278;-76
2022/03/26 00:11:48;;;;;;;;;;;6.70;99.90;;;;;;5035739;28;19962;-76
2022/03/26 00:14:14;;;;;;;;;;;6.70;99.90;;;;;;5018164;28;19917;-76
2022/03/26 00:16:40;;;;;;;;;;;6.80;99.90;;;;;;5018291;28;19921;-76
2022/03/26 00:19:05;;;;;;;;;;;6.70;99.90;;;;;;5035609;28;20396;-76
2022/03/26 00:21:32;;;;;;;;;;;6.80;99.90;;;;;;5018405;28;19921;-76
2022/03/26 00:23:57;;;;;;;;;;;6.70;99.90;;;;;;5035507;28;19948;-76
2022/03/26 00:26:23;;;;;;;;;;;6.70;99.90;;;;;;5018288;28;19921;-76
2022/03/26 00:28:49;;;;;;;;;;;6.70;99.90;;;;;;5018204;28;19921;-76
2022/03/26 00:31:14;;;;;;;;;;;6.70;99.90;;;;;;5018081;28;19917;-76
2022/03/26 00:33:42;;;;;;;;;;;6.70;99.90;;;;;;5018104;28;19925;-76
2022/03/26 00:36:08;;;;;;;;;;;6.80;99.90;;;;;;5035329;28;19924;-77
2022/03/26 00:38:33;;;;;;;;;;;6.70;99.90;;;;;;5018012;28;19968;-76
2022/03/26 00:40:59;;;;;;;;;;;6.70;99.90;;;;;;5001519;28;19975;-76
2022/03/26 00:43:24;;;;;;;;;;;6.60;99.90;;;;;;5034157;28;20012;-76
2022/03/26 00:45:50;;;;;;;;;;;6.60;99.90;;;;;;5017854;28;19921;-76
2022/03/26 00:48:16;;;;;;;;;;;6.60;99.90;;;;;;5001015;28;19917;-77
2022/03/26 00:50:41;;;;;;;;;;;6.60;99.90;;;;;;5017868;28;19924;-76
2022/03/26 00:53:07;;;;;;;;;;;6.60;99.90;;;;;;5035077;28;19924;-77
2022/03/26 00:55:34;;;;;;;;;;;6.60;99.90;;;;;;5035278;28;19974;-76
2022/03/26 00:57:59;;;;;;;;;;;6.60;99.90;;;;;;5017293;28;19921;-76
2022/03/26 01:00:25;;;;;;;;;;;6.60;99.90;;;;;;5017663;28;19927;-76
2022/03/26 01:02:50;;;;;;;;;;;6.50;99.90;;;;;;5017644;28;19921;-76
2022/03/26 01:05:16;;;;;;;;;;;6.50;99.90;;;;;;5017048;28;20505;-77
2022/03/26 01:07:41;;;;;;;;;;;6.60;99.90;;;;;;5001296;28;19925;-76
2022/03/26 01:10:07;;;;;;;;;;;6.50;99.90;;;;;;5017069;28;19924;-77
2022/03/26 01:12:33;;;;;;;;;;;6.50;99.90;;;;;;5017141;28;19976;-76
2022/03/26 01:14:59;;;;;;;;;;;6.50;99.90;;;;;;5017068;28;19921;-77
2022/03/26 01:17:24;;;;;;;;;;;6.50;99.90;;;;;;5017317;28;19917;-76
2022/03/26 01:19:50;;;;;;;;;;;6.50;99.90;;;;;;5034700;28;19921;-76
2022/03/26 01:22:16;;;;;;;;;;;6.40;99.90;;;;;;5017033;28;19928;-76
2022/03/26 01:24:41;;;;;;;;;;;6.40;99.90;;;;;;5000002;28;19929;-76
2022/03/26 01:27:07;;;;;;;;;;;6.40;99.90;;;;;;5016609;28;19925;-78
2022/03/26 01:29:33;;;;;;;;;;;6.40;99.90;;;;;;5000917;28;19921;-77
2022/03/26 01:31:59;;;;;;;;;;;6.30;99.90;;;;;;5016820;28;19928;-79
2022/03/26 01:34:26;;;;;;;;;;;6.30;99.90;;;;;;5034898;28;19927;-76
2022/03/26 01:36:52;;;;;;;;;;;6.30;99.90;;;;;;5016928;28;19925;-76
2022/03/26 01:39:20;;;;;;;;;;;6.20;99.90;;;;;;5034099;28;20324;-77
2022/03/26 01:41:46;;;;;;;;;;;6.20;99.90;;;;;;5017015;28;19975;-76
2022/03/26 01:44:15;;;;;;;;;;;6.10;99.90;;;;;;5034047;28;19929;-76
2022/03/26 01:46:51;;;;;;;;;;;6.10;99.90;;;;;;5016578;28;20064;-76
2022/03/26 01:49:16;;;;;;;;;;;6.20;99.90;;;;;;5016495;28;19975;-76
2022/03/26 01:51:42;;;;;;;;;;;6.10;99.90;;;;;;5016485;28;20056;-77
2022/03/26 01:54:08;;;;;;;;;;;6.10;99.90;;;;;;5016485;28;19925;-76
2022/03/26 01:56:34;;;;;;;;;;;6.00;99.90;;;;;;5034045;28;19921;-76
2022/03/26 01:59:01;;;;;;;;;;;6.10;99.90;;;;;;4999618;28;19921;-76
2022/03/26 02:01:26;;;;;;;;;;;6.00;99.90;;;;;;5016327;28;20034;-77
2022/03/26 02:03:52;;;;;;;;;;;6.00;99.90;;;;;;5016462;28;19932;-76
2022/03/26 02:06:19;;;;;;;;;;;5.90;99.90;;;;;;5016328;28;20016;-76
2022/03/26 02:08:45;;;;;;;;;;;5.90;99.90;;;;;;5016503;28;19928;-76
2022/03/26 02:11:11;;;;;;;;;;;5.90;99.90;;;;;;5016237;28;19921;-76
2022/03/26 02:13:54;;;;;;;;;;;5.90;99.90;;;;;;5016390;28;19928;-77
2022/03/26 02:16:20;;;;;;;;;;;5.90;99.90;;;;;;4999655;28;20019;-76
2022/03/26 02:18:46;;;;;;;;;;;5.80;99.90;;;;;;5016155;28;19928;-76
2022/03/26 02:21:11;;;;;;;;;;;5.90;99.90;;;;;;4999546;28;19975;-76
2022/03/26 02:23:37;;;;;;;;;;;5.90;99.90;;;;;;5015671;28;19925;-77
2022/03/26 02:26:03;;;;;;;;;;;5.90;99.90;;;;;;5016315;28;20015;-76
2022/03/26 02:28:29;;;;;;;;;;;5.90;99.90;;;;;;5015473;28;20441;-76
2022/03/26 02:30:54;;;;;;;;;;;5.90;99.90;;;;;;5015769;28;19921;-76
2022/03/26 02:33:20;;;;;;;;;;;6.00;99.90;;;;;;5015729;28;19959;-76
2022/03/26 02:35:45;;;;;;;;;;;6.00;99.90;;;;;;5033357;28;19948;-76
2022/03/26 02:38:11;;;;;;;;;;;5.90;99.90;;;;;;5015682;28;19921;-76
2022/03/26 02:40:36;;;;;;;;;;;5.90;99.90;;;;;;5033232;28;19971;-76
2022/03/26 02:43:05;;;;;;;;;;;5.90;99.90;;;;;;5015906;28;19925;-76
2022/03/26 02:45:32;;;;;;;;;;;5.90;99.90;;;;;;5032751;28;19969;-76
2022/03/26 02:47:57;;;;;;;;;;;5.90;99.90;;;;;;5015850;28;20337;-77
2022/03/26 02:50:23;;;;;;;;;;;5.90;99.90;;;;;;5015521;28;19925;-77
2022/03/26 02:52:50;;;;;;;;;;;5.90;99.90;;;;;;5015714;28;19967;-77
2022/03/26 02:55:16;;;;;;;;;;;6.00;99.90;;;;;;5032914;28;19979;-76
2022/03/26 02:57:42;;;;;;;;;;;5.90;99.90;;;;;;5015566;28;19972;-77
2022/03/26 03:00:09;;;;;;;;;;;6.00;99.90;;;;;;4999258;28;20372;-76
2022/03/26 03:02:35;;;;;;;;;;;6.00;99.90;;;;;;4999109;28;20377;-76
2022/03/26 03:05:01;;;;;;;;;;;5.90;99.90;;;;;;5015244;28;19921;-76
2022/03/26 03:07:27;;;;;;;;;;;5.90;99.90;;;;;;5015127;28;19924;-78
2022/03/26 03:09:52;;;;;;;;;;;5.90;99.90;;;;;;5032750;28;20396;-77
2022/03/26 03:12:18;;;;;;;;;;;5.80;99.90;;;;;;5015313;28;20262;-77
2022/03/26 03:14:44;;;;;;;;;;;5.70;99.90;;;;;;5031664;28;19921;-76
2022/03/26 03:17:09;;;;;;;;;;;5.70;99.90;;;;;;5015377;28;19928;-76
2022/03/26 03:19:35;;;;;;;;;;;5.70;99.90;;;;;;5015131;28;19925;-76
2022/03/26 03:22:02;;;;;;;;;;;5.60;99.90;;;;;;5015139;28;19928;-76
2022/03/26 03:24:28;;;;;;;;;;;5.60;99.90;;;;;;5014467;28;19932;-77
2022/03/26 03:26:53;;;;;;;;;;;5.70;99.90;;;;;;4999026;28;19925;-76
2022/03/26 03:29:19;;;;;;;;;;;5.60;99.90;;;;;;5014756;28;19921;-76
2022/03/26 03:31:47;;;;;;;;;;;5.60;99.90;;;;;;5015316;28;19943;-76
2022/03/26 03:34:13;;;;;;;;;;;5.50;99.90;;;;;;4999061;28;19931;-80
2022/03/26 03:36:39;;;;;;;;;;;5.50;99.90;;;;;;5032524;28;19966;-76
2022/03/26 03:39:04;;;;;;;;;;;5.50;99.90;;;;;;5015192;28;19921;-76
2022/03/26 03:41:30;;;;;;;;;;;5.50;99.90;;;;;;5014850;28;19925;-76
2022/03/26 03:43:55;;;;;;;;;;;5.50;99.90;;;;;;5015051;28;20340;-76
2022/03/26 03:46:21;;;;;;;;;;;5.50;99.90;;;;;;5031073;28;19971;-76
2022/03/26 03:48:46;;;;;;;;;;;5.50;99.90;;;;;;5015120;28;20411;-76
2022/03/26 03:51:12;;;;;;;;;;;5.50;99.90;;;;;;5015093;28;19932;-76
2022/03/26 03:53:38;;;;;;;;;;;5.40;99.90;;;;;;4998552;28;19975;-77
2022/03/26 03:56:03;;;;;;;;;;;5.50;99.90;;;;;;5032495;28;19921;-76
2022/03/26 03:58:29;;;;;;;;;;;5.60;99.90;;;;;;5014811;28;19967;-75
2022/03/26 04:00:55;;;;;;;;;;;5.50;99.90;;;;;;5014974;28;19987;-76
2022/03/26 04:03:21;;;;;;;;;;;5.50;99.90;;;;;;5014748;28;19943;-76
2022/03/26 04:05:47;;;;;;;;;;;5.50;99.90;;;;;;5014918;28;20354;-78
2022/03/26 04:08:12;;;;;;;;;;;5.50;99.90;;;;;;4998447;28;19928;-77
2022/03/26 04:10:38;;;;;;;;;;;5.40;99.90;;;;;;5014604;28;19925;-76
2022/03/26 04:13:03;;;;;;;;;;;5.40;99.90;;;;;;5032339;28;19927;-76
2022/03/26 04:15:29;;;;;;;;;;;5.30;99.90;;;;;;5014475;28;19921;-76
2022/03/26 04:17:55;;;;;;;;;;;5.30;99.90;;;;;;5014875;28;19927;-76
2022/03/26 04:20:21;;;;;;;;;;;5.30;99.90;;;;;;5014610;28;19928;-76
2022/03/26 04:22:46;;;;;;;;;;;5.30;99.90;;;;;;5017166;28;19925;-77
2022/03/26 04:25:12;;;;;;;;;;;5.40;99.90;;;;;;5035334;28;19983;-76
2022/03/26 04:27:41;;;;;;;;;;;5.30;99.90;;;;;;5001754;28;19925;-77
2022/03/26 04:30:07;;;;;;;;;;;5.30;99.90;;;;;;5018205;28;20019;-77
2022/03/26 04:32:33;;;;;;;;;;;5.20;99.90;;;;;;5035507;28;20011;-76
2022/03/26 04:34:58;;;;;;;;;;;5.30;99.90;;;;;;5018167;28;19921;-76
2022/03/26 04:37:24;;;;;;;;;;;5.10;99.90;;;;;;5017848;28;19921;-76
2022/03/26 04:39:49;;;;;;;;;;;5.20;99.90;;;;;;5018024;28;20384;-76
2022/03/26 04:42:15;;;;;;;;;;;5.20;99.90;;;;;;5017896;28;20319;-76
2022/03/26 04:44:40;;;;;;;;;;;5.20;99.90;;;;;;5035118;28;19943;-76
2022/03/26 04:47:06;;;;;;;;;;;5.20;99.90;;;;;;5035356;28;19928;-77
2022/03/26 04:49:32;;;;;;;;;;;5.20;99.90;;;;;;5017312;28;20251;-78
2022/03/26 04:51:57;;;;;;;;;;;5.20;99.90;;;;;;5035196;28;19928;-77
2022/03/26 04:54:23;;;;;;;;;;;5.20;99.90;;;;;;5017656;28;19946;-76
2022/03/26 04:56:48;;;;;;;;;;;5.10;99.90;;;;;;5001490;28;19925;-76
2022/03/26 04:59:14;;;;;;;;;;;5.20;99.90;;;;;;5017545;28;19920;-76
2022/03/26 05:01:44;;;;;;;;;;;5.20;99.90;;;;;;5017370;28;19921;-76
2022/03/26 05:04:10;;;;;;;;;;;5.20;99.90;;;;;;5017513;28;19921;-76
2022/03/26 05:06:36;;;;;;;;;;;5.20;99.90;;;;;;5034322;28;20378;-76
2022/03/26 05:09:02;;;;;;;;;;;5.20;99.90;;;;;;5017376;28;19931;-76
2022/03/26 05:11:27;;;;;;;;;;;5.10;99.90;;;;;;5017165;28;19968;-76
2022/03/26 05:13:53;;;;;;;;;;;5.20;99.90;;;;;;5017530;28;19987;-77
2022/03/26 05:16:18;;;;;;;;;;;5.10;99.90;;;;;;5017397;28;19925;-76
2022/03/26 05:18:44;;;;;;;;;;;5.10;99.90;;;;;;5034497;28;19921;-76
2022/03/26 05:21:10;;;;;;;;;;;5.10;99.90;;;;;;5034723;28;19921;-76
2022/03/26 05:23:35;;;;;;;;;;;5.10;99.90;;;;;;5016799;28;19921;-76
2022/03/26 05:26:02;;;;;;;;;;;5.20;99.90;;;;;;5017297;28;19988;-76
2022/03/26 05:28:27;;;;;;;;;;;5.20;99.90;;;;;;5016916;28;20401;-76
2022/03/26 05:30:54;;;;;;;;;;;5.20;99.90;;;;;;5016962;28;20011;-76
2022/03/26 05:33:20;;;;;;;;;;;5.10;99.90;;;;;;5016059;28;20369;-76
2022/03/26 05:35:45;;;;;;;;;;;5.10;99.90;;;;;;5016720;28;19924;-76
2022/03/26 05:38:11;;;;;;;;;;;5.20;99.90;;;;;;5016849;28;19975;-76
2022/03/26 05:40:36;;;;;;;;;;;5.10;99.90;;;;;;5016224;28;19932;-76
2022/03/26 05:43:02;;;;;;;;;;;5.10;99.90;;;;;;5034706;28;19939;-77
2022/03/26 05:45:29;;;;;;;;;;;5.10;99.90;;;;;;5016359;28;19927;-78
2022/03/26 05:48:00;;;;;;;;;;;5.10;99.90;;;;;;5016826;28;19928;-76
2022/03/26 05:50:26;;;;;;;;;;;5.10;99.90;;;;;;5016734;28;19920;-76
2022/03/26 05:52:51;;;;;;;;;;;5.00;99.90;;;;;;5000279;28;19971;-76
2022/03/26 05:55:17;;;;;;;;;;;5.10;99.90;;;;;;5032886;28;20455;-77
2022/03/26 05:57:42;;;;;;;;;;;5.10;99.90;;;;;;4999972;28;20281;-76
2022/03/26 06:00:08;;;;;;;;;;;5.20;99.90;;;;;;5016269;28;19925;-77
2022/03/26 06:02:34;;;;;;;;;;;5.20;99.90;;;;;;5016106;28;19968;-76
2022/03/26 06:05:00;;;;;;;;;;;5.20;99.90;;;;;;5033910;28;19921;-76
2022/03/26 06:07:25;;;;;;;;;;;5.20;99.90;;;;;;5016474;28;19927;-76
2022/03/26 06:09:51;;;;;;;;;;;5.20;99.90;;;;;;5016104;28;19928;-76
2022/03/26 06:12:17;;;;;;;;;;;5.20;99.90;;;;;;5016314;28;19925;-77
2022/03/26 06:14:42;;;;;;;;;;;5.30;99.90;;;;;;5015987;28;20358;-76
2022/03/26 06:17:08;;;;;;;;;;;5.30;99.90;;;;;;5016123;28;19929;-76
2022/03/26 06:19:33;;;;;;;;;;;5.40;99.90;;;;;;5016027;28;19921;-76
2022/03/26 06:21:59;;;;;;;;;;;5.50;99.90;;;;;;4999829;28;20342;-76
2022/03/26 06:24:24;;;;;;;;;;;5.60;99.90;;;;;;5015693;28;19921;-76
2022/03/26 06:26:50;;;;;;;;;;;5.70;99.90;;;;;;5015854;28;19972;-76
2022/03/26 06:29:16;;;;;;;;;;;5.80;99.90;;;;;;5033572;28;19991;-76
2022/03/26 06:31:42;;;;;;;;;;;5.90;99.90;;;;;;5015857;28;19931;-77
2022/03/26 06:34:08;;;;;;;;;;;5.80;99.90;;;;;;5015988;28;20313;-77
2022/03/26 06:36:34;;;;;;;;;;;5.90;99.90;;;;;;5033111;28;20289;-77
2022/03/26 06:39:00;;;;;;;;;;;6.00;99.90;;;;;;5015887;28;19944;-76
2022/03/26 06:41:26;;;;;;;;;;;6.00;99.90;;;;;;5033346;28;19982;-76
2022/03/26 06:43:52;;;;;;;;;;;6.10;99.90;;;;;;4999142;28;19936;-78
2022/03/26 06:46:17;;;;;;;;;;;6.20;99.90;;;;;;5033033;28;19921;-77
2022/03/26 06:48:43;;;;;;;;;;;6.30;99.90;;;;;;4999187;28;20011;-76
2022/03/26 06:51:09;;;;;;;;;;;6.40;99.90;;;;;;5015769;28;19924;-76
2022/03/26 06:53:35;;;;;;;;;;;6.50;99.90;;;;;;5032940;28;20010;-77
2022/03/26 06:56:00;;;;;;;;;;;6.60;99.90;;;;;;5015550;28;19987;-76
2022/03/26 06:58:26;;;;;;;;;;;6.70;99.90;;;;;;5032948;28;19921;-77
2022/03/26 07:00:52;;;;;;;;;;;6.80;99.90;;;;;;5015292;28;19925;-77
2022/03/26 07:03:17;;;;;;;;;;;6.90;99.90;;;;;;5015385;28;20278;-77
2022/03/26 07:05:43;;;;;;;;;;;7.10;99.90;;;;;;5014846;28;19921;-76
2022/03/26 07:08:12;;;;;;;;;;;7.30;99.90;;;;;;5032864;28;19921;-77
2022/03/26 07:10:41;;;;;;;;;;;7.40;99.90;;;;;;5031488;28;19933;-83
2022/03/26 07:13:06;;;;;;;;;;;7.60;99.90;;;;;;5015442;28;19921;-76
2022/03/26 07:15:32;;;;;;;;;;;7.70;99.90;;;;;;5032771;28;19920;-77
2022/03/26 07:17:59;;;;;;;;;;;7.80;99.90;;;;;;5032611;28;20023;-77
2022/03/26 07:20:25;;;;;;;;;;;8.00;99.90;;;;;;4999103;28;20374;-77
2022/03/26 07:22:50;;;;;;;;;;;8.10;99.90;;;;;;5015078;28;19925;-77
2022/03/26 07:25:16;;;;;;;;;;;8.20;99.90;;;;;;5014716;28;19921;-79
2022/03/26 07:27:42;;;;;;;;;;;8.30;99.90;;;;;;5014851;28;19925;-78
2022/03/26 07:30:08;;;;;;;;;;;8.40;99.90;;;;;;5014976;28;19979;-77
2022/03/26 07:32:34;;;;;;;;;;;8.50;99.90;;;;;;5015204;28;19921;-77
2022/03/26 07:35:00;;;;;;;;;;;8.50;99.90;;;;;;5014725;28;19975;-76
2022/03/26 07:37:25;;;;;;;;;;;8.60;99.90;;;;;;4998650;28;19968;-77
2022/03/26 07:39:51;;;;;;;;;;;8.80;99.90;;;;;;4998587;28;19921;-77
2022/03/26 07:42:16;;;;;;;;;;;8.80;99.90;;;;;;4998634;28;19925;-77
2022/03/26 07:44:42;;;;;;;;;;;8.90;99.90;;;;;;5014699;28;20283;-77
2022/03/26 07:47:08;;;;;;;;;;;9.00;99.90;;;;;;5032357;28;19920;-77
2022/03/26 07:49:33;;;;;;;;;;;9.10;99.90;;;;;;5032257;28;19943;-77
2022/03/26 07:51:59;;;;;;;;;;;9.20;99.90;;;;;;5014390;28;19921;-76
2022/03/26 07:54:25;;;;;;;;;;;9.20;99.90;;;;;;5015029;28;19921;-76
2022/03/26 07:56:50;;;;;;;;;;;9.30;99.90;;;;;;5015543;28;19972;-77
2022/03/26 07:59:16;;;;;;;;;;;9.40;99.90;;;;;;5018780;28;19921;-76
2022/03/26 08:01:42;;;;;;;;;;;9.50;99.90;;;;;;5018492;28;20008;-78
2022/03/26 08:04:07;;;;;;;;;;;9.60;99.90;;;;;;5017921;28;19921;-77
2022/03/26 08:06:33;;;;;;;;;;;9.70;99.90;;;;;;5035504;28;19921;-77
2022/03/26 08:08:59;;;;;;;;;;;9.80;99.90;;;;;;5035588;28;19932;-77
2022/03/26 08:11:24;;;;;;;;;;;9.80;99.90;;;;;;5018227;28;20286;-77
2022/03/26 08:13:50;;;;;;;;;;;10.00;99.90;;;;;;5017546;28;20023;-77
2022/03/26 08:16:16;;;;;;;;;;;10.00;99.90;;;;;;5017960;28;19971;-77
2022/03/26 08:18:44;;;;;;;;;;;10.10;99.90;;;;;;5018152;28;19936;-77
2022/03/26 08:21:10;;;;;;;;;;;10.10;99.90;;;;;;5001811;28;19921;-77
2022/03/26 08:23:36;;;;;;;;;;;10.20;99.90;;;;;;5017938;28;20346;-77
2022/03/26 08:26:19;;;;;;;;;;;10.30;99.90;;;;;;5035493;28;19968;-77
2022/03/26 08:28:45;;;;;;;;;;;10.40;99.90;;;;;;5017989;28;19928;-77
2022/03/26 08:31:12;;;;;;;;;;;10.40;99.90;;;;;;5018172;28;19921;-77
2022/03/26 08:33:38;;;;;;;;;;;10.50;99.90;;;;;;5018061;28;20003;-77
2022/03/26 08:36:04;;;;;;;;;;;10.50;99.90;;;;;;5017923;28;20315;-77
2022/03/26 08:38:29;;;;;;;;;;;10.60;99.90;;;;;;5035452;28;19994;-76
2022/03/26 08:40:55;;;;;;;;;;;10.70;99.90;;;;;;5035157;28;20357;-77
2022/03/26 08:43:20;;;;;;;;;;;10.80;99.90;;;;;;5034955;28;19928;-77
2022/03/26 08:45:46;;;;;;;;;;;10.80;99.90;;;;;;5035194;28;20018;-77
2022/03/26 08:48:12;;;;;;;;;;;10.90;99.90;;;;;;5017599;28;19925;-76
2022/03/26 08:50:38;;;;;;;;;;;10.90;99.90;;;;;;5035282;28;19921;-77
2022/03/26 08:53:03;;;;;;;;;;;11.00;99.90;;;;;;5017576;28;19956;-77
2022/03/26 08:55:29;;;;;;;;;;;11.10;99.90;;;;;;5028461;28;20373;-86
2022/03/26 08:57:57;;;;;;;;;;;11.20;99.90;;;;;;5036818;28;20029;-81
2022/03/26 09:00:22;;;;;;;;;;;11.20;99.90;;;;;;5019804;28;19932;-78
2022/03/26 09:02:48;;;;;;;;;;;11.40;99.90;;;;;;5000134;28;19925;-79
2022/03/26 09:05:14;;;;;;;;;;;11.40;99.90;;;;;;5035452;28;19974;-78
2022/03/26 09:07:39;;;;;;;;;;;11.50;99.90;;;;;;5035579;28;19920;-75
2022/03/26 09:10:05;;;;;;;;;;;11.60;99.90;;;;;;5050513;28;20298;-80
2022/03/26 09:12:32;;;;;;;;;;;11.60;99.90;;;;;;5036162;28;20410;-79
2022/03/26 09:14:58;;;;;;;;;;;11.70;99.90;;;;;;5036387;28;19929;-79
2022/03/26 09:17:23;;;;;;;;;;;11.80;99.90;;;;;;5019395;28;19929;-78
2022/03/26 09:19:49;;;;;;;;;;;11.80;99.90;;;;;;5035878;28;19947;-76
2022/03/26 09:22:14;;;;;;;;;;;11.90;99.90;;;;;;5020488;28;19920;-85
2022/03/26 09:24:40;;;;;;;;;;;12.00;99.90;;;;;;5020120;28;20023;-85
2022/03/26 09:27:06;;;;;;;;;;;12.00;99.90;;;;;;5021198;28;19924;-83
2022/03/26 09:29:32;;;;;;;;;;;12.10;99.90;;;;;;5020170;28;19951;-77
2022/03/26 09:31:57;;;;;;;;;;;12.20;99.90;;;;;;5035347;28;20284;-78
2022/03/26 09:34:23;;;;;;;;;;;12.30;99.90;;;;;;5036420;28;20046;-77
2022/03/26 09:36:48;;;;;;;;;;;12.30;99.90;;;;;;5036248;28;19986;-77
2022/03/26 09:39:14;;;;;;;;;;;12.30;99.90;;;;;;5035769;28;19936;-77
2022/03/26 09:41:40;;;;;;;;;;;12.30;99.90;;;;;;5019323;28;19921;-77
2022/03/26 09:44:06;;;;;;;;;;;12.40;99.90;;;;;;5036177;28;20015;-75
2022/03/26 09:46:34;;;;;;;;;;;12.40;99.90;;;;;;5036415;28;19925;-75
2022/03/26 09:48:59;;;;;;;;;;;12.40;99.90;;;;;;5036444;28;20023;-74
2022/03/26 09:51:25;;;;;;;;;;;12.50;99.90;;;;;;5054097;28;20012;-80
2022/03/26 09:53:52;;;;;;;;;;;12.50;99.90;;;;;;5036509;28;19928;-74
2022/03/26 09:56:18;;;;;;;;;;;12.60;99.90;;;;;;5036044;28;19924;-74
2022/03/26 09:58:43;;;;;;;;;;;12.70;99.90;;;;;;5054098;28;19921;-75
2022/03/26 10:01:09;;;;;;;;;;;12.70;99.90;;;;;;5036504;28;20246;-75
2022/03/26 10:03:38;;;;;;;;;;;12.70;99.90;;;;;;5016594;28;20361;-75
2022/03/26 10:06:04;;;;;;;;;;;12.80;99.90;;;;;;5016372;28;19928;-74
2022/03/26 10:08:34;;;;;;;;;;;12.80;99.90;;;;;;5016838;28;19920;-74
2022/03/26 10:11:00;;;;;;;;;;;12.80;99.90;;;;;;5031917;28;19921;-75
2022/03/26 10:13:40;;;;;;;;;;;12.90;99.90;;;;;;5036048;28;19947;-78
2022/03/26 10:16:12;;;;;;;;;;;12.90;99.90;;;;;;5036149;28;19948;-75
2022/03/26 10:18:39;;;;;;;;;;;13.00;99.90;;;;;;5035916;28;19928;-75
2022/03/26 10:21:11;;;;;;;;;;;13.00;99.90;;;;;;5035305;28;19921;-76
2022/03/26 10:23:37;;;;;;;;;;;13.10;99.90;;;;;;5053321;28;19925;-75
2022/03/26 10:26:07;;;;;;;;;;;13.10;99.90;;;;;;5034782;28;20257;-75
2022/03/26 10:28:32;;;;;;;;;;;13.20;99.90;;;;;;5035596;28;19951;-74
2022/03/26 10:34:07;;;;;;;;;;;13.20;99.90;;;;;;5018410;28;20388;-76
2022/03/26 10:36:37;;;;;;;;;;;13.30;99.90;;;;;;5031947;28;19969;-77
2022/03/26 10:39:03;;;;;;;;;;;13.40;99.90;;;;;;5034440;28;19920;-78
2022/03/26 10:41:31;;;;;;;;;;;13.50;99.90;;;;;;5017616;28;19931;-77
2022/03/26 10:44:07;;;;;;;;;;;13.50;99.90;;;;;;5049555;28;20476;-78
2022/03/26 10:46:40;;;;;;;;;;;13.60;99.90;;;;;;5030738;28;19952;-77
2022/03/26 10:49:06;;;;;;;;;;;13.70;99.90;;;;;;5035028;28;19931;-78
2022/03/26 10:51:36;;;;;;;;;;;13.70;99.90;;;;;;5035396;28;19921;-77
2022/03/26 10:54:07;;;;;;;;;;;13.80;99.90;;;;;;5035146;28;19921;-81
2022/03/26 10:56:33;;;;;;;;;;;13.90;99.90;;;;;;5034954;28;19971;-77
2022/03/26 10:59:00;;;;;;;;;;;13.90;99.90;;;;;;5035316;28;19925;-77
2022/03/26 11:01:26;;;;;;;;;;;13.90;99.90;;;;;;5034879;28;20273;-78
2022/03/26 11:03:51;;;;;;;;;;;14.00;99.90;;;;;;5032545;28;20035;-77
2022/03/26 11:06:17;;;;;;;;;;;13.90;99.90;;;;;;5022957;28;19925;-77
2022/03/26 11:08:43;;;;;;;;;;;14.00;99.90;;;;;;5019490;28;19921;-77
2022/03/26 11:11:10;;;;;;;;;;;14.20;99.90;;;;;;5045732;28;19979;-77
2022/03/26 11:13:38;;;;;;;;;;;14.30;99.90;;;;;;5013466;28;19947;-75
2022/03/26 11:16:07;;;;;;;;;;;14.50;99.90;;;;;;5035470;28;19965;-77
2022/03/26 11:18:47;;;;;;;;;;;14.70;99.90;;;;;;5031074;28;20421;-74
2022/03/26 11:21:31;;;;;;;;;;;14.90;99.90;;;;;;5033182;28;20399;-75
2022/03/26 11:23:59;;;;;;;;;;;15.00;99.90;;;;;;5031210;28;20016;-77
2022/03/26 11:26:31;;;;;;;;;;;15.10;99.90;;;;;;5045946;28;19927;-78
2022/03/26 11:29:03;;;;;;;;;;;15.00;99.90;;;;;;5025213;28;20456;-79
2022/03/26 11:31:33;;;;;;;;;;;15.30;99.90;;;;;;5011987;28;19975;-78
2022/03/26 11:34:05;;;;;;;;;;;15.20;99.90;;;;;;5025108;28;19924;-76
2022/03/26 11:36:32;;;;;;;;;;;15.20;99.90;;;;;;5019280;28;19956;-77
2022/03/26 11:39:11;;;;;;;;;;;15.40;99.90;;;;;;5023822;28;19925;-77
2022/03/26 11:41:38;;;;;;;;;;;15.50;99.90;;;;;;5018286;28;20373;-77
2022/03/26 11:44:04;;;;;;;;;;;15.70;99.90;;;;;;5018014;28;19927;-76
2022/03/26 11:52:19;;;;;;;;;;;16.10;99.90;;;;;;5017913;28;20416;-76
2022/03/26 11:54:45;;;;;;;;;;;16.10;99.90;;;;;;5017745;28;19979;-76
2022/03/26 11:57:16;;;;;;;;;;;16.10;99.90;;;;;;5020412;28;19921;-77
2022/03/26 11:59:42;;;;;;;;;;;16.00;99.90;;;;;;5020655;28;19925;-77
2022/03/26 12:02:16;;;;;;;;;;;16.00;99.90;;;;;;5017926;28;20365;-77
2022/03/26 12:04:50;;;;;;;;;;;16.10;99.90;;;;;;5037892;28;19929;-78
2022/03/26 12:07:16;;;;;;;;;;;16.20;99.90;;;;;;5020172;28;19998;-77
2022/03/26 12:09:42;;;;;;;;;;;16.10;99.90;;;;;;5001326;28;20007;-79
2022/03/26 12:12:10;;;;;;;;;;;15.90;99.90;;;;;;5023743;28;19927;-78
2022/03/26 12:14:55;;;;;;;;;;;16.00;99.90;;;;;;5037123;28;19925;-77
2022/03/26 12:17:39;;;;;;;;;;;16.40;99.90;;;;;;5036895;28;20250;-77
2022/03/26 12:20:24;;;;;;;;;;;16.30;99.90;;;;;;5033788;28;19921;-77
2022/03/26 12:23:11;;;;;;;;;;;16.40;99.90;;;;;;5018618;28;19921;-77
2022/03/26 12:25:46;;;;;;;;;;;16.30;99.90;;;;;;5021636;28;20397;-78
2022/03/26 12:28:12;;;;;;;;;;;16.30;99.90;;;;;;5040143;28;19972;-77
2022/03/26 12:30:43;;;;;;;;;;;16.00;99.90;;;;;;5014848;28;19968;-76
2022/03/26 12:33:08;;;;;;;;;;;15.80;99.90;;;;;;5051475;28;19979;-78
2022/03/26 12:35:34;;;;;;;;;;;15.90;99.90;;;;;;5051050;28;19972;-75
2022/03/26 12:38:01;;;;;;;;;;;15.70;99.90;;;;;;5019368;28;20350;-77
2022/03/26 12:40:27;;;;;;;;;;;15.40;99.90;;;;;;5036697;28;19928;-78
2022/03/26 12:42:54;;;;;;;;;;;15.30;99.90;;;;;;5016830;28;20008;-76
2022/03/26 12:45:20;;;;;;;;;;;15.30;99.90;;;;;;5028782;28;19924;-77
2022/03/26 12:47:46;;;;;;;;;;;15.40;99.90;;;;;;5011647;28;19947;-76
2022/03/26 12:50:13;;;;;;;;;;;15.30;99.90;;;;;;5036602;28;19925;-78
2022/03/26 12:52:39;;;;;;;;;;;15.30;99.90;;;;;;5033877;28;19921;-78
2022/03/26 12:55:05;;;;;;;;;;;15.40;99.90;;;;;;5016893;28;19921;-79
2022/03/26 13:00:22;;;;;;;;;;;15.30;99.90;;;;;;5022600;28;20354;-81
2022/03/26 13:02:58;;;;;;;;;;;15.40;99.90;;;;;;5022175;28;20320;-77
2022/03/26 13:05:24;;;;;;;;;;;15.30;99.90;;;;;;5019342;28;19920;-78
2022/03/26 13:07:51;;;;;;;;;;;15.10;99.90;;;;;;5003153;28;19921;-78
2022/03/26 13:10:27;;;;;;;;;;;15.00;99.90;;;;;;5024450;28;19929;-82
2022/03/26 13:12:52;;;;;;;;;;;14.90;99.90;;;;;;5024725;28;20392;-80
2022/03/26 13:15:19;;;;;;;;;;;15.00;99.90;;;;;;5021274;28;19921;-79
2022/03/26 13:17:44;;;;;;;;;;;15.10;99.90;;;;;;5020597;28;19946;-78
2022/03/26 13:20:22;;;;;;;;;;;15.40;99.90;;;;;;5012959;28;19921;-77
2022/03/26 13:22:51;;;;;;;;;;;15.70;99.90;;;;;;5023079;28;19980;-78
2022/03/26 13:25:18;;;;;;;;;;;15.70;99.90;;;;;;5028099;28;19959;-78
2022/03/26 13:27:43;;;;;;;;;;;15.90;99.90;;;;;;5029205;28;19928;-77
2022/03/26 13:30:10;;;;;;;;;;;16.10;99.90;;;;;;5042859;28;19921;-77
2022/03/26 13:32:35;;;;;;;;;;;16.20;99.90;;;;;;5051438;28;19920;-83
2022/03/26 13:35:01;;;;;;;;;;;16.40;99.90;;;;;;5053585;28;19929;-77
2022/03/26 13:37:29;;;;;;;;;;;16.30;99.90;;;;;;5036027;28;19929;-78
2022/03/26 13:39:56;;;;;;;;;;;16.20;99.90;;;;;;5020328;28;19943;-78
2022/03/26 13:42:22;;;;;;;;;;;16.00;99.90;;;;;;5033034;28;19925;-79
2022/03/26 13:44:49;;;;;;;;;;;16.00;99.90;;;;;;5029663;28;19925;-78
2022/03/26 13:47:15;;;;;;;;;;;16.00;99.90;;;;;;4999270;28;19927;-78
2022/03/26 13:49:42;;;;;;;;;;;16.00;99.90;;;;;;5024679;28;20280;-80
2022/03/26 13:52:26;;;;;;;;;;;16.10;99.90;;;;;;5015961;28;19925;-79
2022/03/26 13:54:52;;;;;;;;;;;16.20;99.90;;;;;;5014597;28;19971;-79
2022/03/26 13:57:27;;;;;;;;;;;16.60;99.90;;;;;;5028106;28;19972;-79
2022/03/26 13:59:53;;;;;;;;;;;16.80;99.90;;;;;;5034999;28;20369;-79
2022/03/26 14:02:22;;;;;;;;;;;17.00;99.90;;;;;;5052731;28;19931;-79
2022/03/26 14:04:48;;;;;;;;;;;17.00;99.90;;;;;;5034938;28;19924;-79
2022/03/26 14:07:14;;;;;;;;;;;17.40;99.90;;;;;;5052350;28;19924;-79
2022/03/26 14:09:40;;;;;;;;;;;17.80;99.90;;;;;;5034657;28;19930;-80
2022/03/26 14:12:06;;;;;;;;;;;18.00;99.90;;;;;;5018553;28;19967;-81
2022/03/26 14:14:31;;;;;;;;;;;18.10;99.90;;;;;;5034464;28;19928;-79
2022/03/26 14:16:57;;;;;;;;;;;18.10;99.90;;;;;;5034601;28;19951;-80
2022/03/26 14:19:22;;;;;;;;;;;17.90;99.90;;;;;;5018223;28;19920;-80
2022/03/26 14:21:48;;;;;;;;;;;17.80;99.90;;;;;;5034980;28;19947;-78
2022/03/26 14:24:13;;;;;;;;;;;17.50;99.90;;;;;;5017471;28;19947;-79
2022/03/26 14:26:39;;;;;;;;;;;17.20;99.90;;;;;;5030649;28;19925;-79
2022/03/26 14:29:05;;;;;;;;;;;17.10;99.90;;;;;;5030939;28;19925;-78
2022/03/26 14:31:31;;;;;;;;;;;16.90;99.90;;;;;;5031050;28;19925;-79
2022/03/26 14:33:56;;;;;;;;;;;16.90;99.90;;;;;;5014637;28;19975;-79